sensor_id;sensor_type;location;lat;lon;timestamp;pressure;altitude;pressure_sealevel;temperature;humidity
19600;BME280;9947;57.722;12.012;2023-01-29T00:01:11;101218.25;;;2.03;100.00
19600;BME280;9947;57.722;12.012;2023-01-29T00:03:38;101209.91;;;2.13;100.00
19600;BME280;9947;57.722;12.012;2023-01-29T00:06:12;101215.28;;;2.12;100.00
19600;BME280;9947;57.722;12.012;2023-01-29T00:08:38;101209.84;;;2.15;100.00
19600;BME280;9947;57.722;12.012;2023-01-29T00:11:15;101210.00;;;2.10;100.00
19600;BME280;9947;57.722;12.012;2023-01-29T00:13:42;101211.59;;;2.16;100.00
19600;BME280;9947;57.722;12.012;2023-01-29T00:16:17;101216.94;;;2.16;100.00
19600;BME280;9947;57.722;12.012;2023-01-29T00:18:44;101216.09;;;2.14;100.00
19600;BME280;9947;57.722;12.012;2023-01-29T00:21:19;101220.34;;;2.20;100.00
19600;BME280;9947;57.722;12.012;2023-01-29T00:23:47;101212.28;;;2.21;100.00
19600;BME280;9947;57.722;12.012;2023-01-29T00:26:21;101205.09;;;2.23;100.00
19600;BME280;9947;57.722;12.012;2023-01-29T00:28:55;101195.97;;;2.30;100.00
19600;BME280;9947;57.722;12.012;2023-01-29T00:31:30;101183.50;;;2.31;100.00
19600;BME280;9947;57.722;12.012;2023-01-29T00:33:57;101186.94;;;2.34;100.00
19600;BME280;9947;57.722;12.012;2023-01-29T00:36:37;101188.69;;;2.35;100.00
19600;BME280;9947;57.722;12.012;2023-01-29T00:39:17;101181.56;;;2.36;100.00
19600;BME280;9947;57.722;12.012;2023-01-29T00:41:48;101182.38;;;2.38;100.00
19600;BME280;9947;57.722;12.012;2023-01-29T00:44:39;101177.78;;;2.41;100.00
19600;BME280;9947;57.722;12.012;2023-01-29T00:47:26;101185.78;;;2.41;100.00
19600;BME280;9947;57.722;12.012;2023-01-29T00:49:58;101186.59;;;2.43;100.00
19600;BME280;9947;57.722;12.012;2023-01-29T00:52:32;101176.47;;;2.53;100.00
19600;BME280;9947;57.722;12.012;2023-01-29T00:55:07;101177.50;;;2.49;100.00
19600;BME280;9947;57.722;12.012;2023-01-29T00:57:35;101169.25;;;2.55;100.00
19600;BME280;9947;57.722;12.012;2023-01-29T01:00:11;101172.69;;;2.59;100.00
19600;BME280;9947;57.722;12.012;2023-01-29T01:02:48;101168.28;;;2.58;100.00
19600;BME280;9947;57.722;12.012;2023-01-29T01:05:33;101178.16;;;2.56;100.00
19600;BME280;9947;57.722;12.012;2023-01-29T01:08:01;101171.75;;;2.60;100.00
19600;BME280;9947;57.722;12.012;2023-01-29T01:10:57;101177.94;;;2.62;100.00
19600;BME280;9947;57.722;12.012;2023-01-29T01:13:32;101174.53;;;2.57;100.00
19600;BME280;9947;57.722;12.012;2023-01-29T01:15:59;101158.22;;;2.66;100.00
19600;BME280;9947;57.722;12.012;2023-01-29T01:18:34;101155.44;;;2.69;100.00
19600;BME280;9947;57.722;12.012;2023-01-29T01:21:16;101167.59;;;2.76;100.00
19600;BME280;9947;57.722;12.012;2023-01-29T01:23:56;101157.50;;;2.84;100.00
19600;BME280;9947;57.722;12.012;2023-01-29T01:26:23;101156.28;;;2.93;100.00
19600;BME280;9947;57.722;12.012;2023-01-29T01:28:57;101151.69;;;2.96;100.00
19600;BME280;9947;57.722;12.012;2023-01-29T01:31:24;101144.56;;;2.97;100.00
19600;BME280;9947;57.722;12.012;2023-01-29T01:33:59;101142.13;;;2.91;100.00
19600;BME280;9947;57.722;12.012;2023-01-29T01:36:33;101150.28;;;2.88;100.00
19600;BME280;9947;57.722;12.012;2023-01-29T01:39:06;101147.53;;;2.89;100.00
19600;BME280;9947;57.722;12.012;2023-01-29T01:41:32;101141.09;;;2.95;100.00
19600;BME280;9947;57.722;12.012;2023-01-29T01:47:22;101159.16;;;2.88;100.00
19600;BME280;9947;57.722;12.012;2023-01-29T01:50:01;101158.31;;;2.86;100.00
19600;BME280;9947;57.722;12.012;2023-01-29T01:52:39;101158.31;;;2.86;100.00
19600;BME280;9947;57.722;12.012;2023-01-29T01:55:17;101153.88;;;2.87;100.00
19600;BME280;9947;57.722;12.012;2023-01-29T01:57:55;101138.22;;;2.99;100.00
19600;BME280;9947;57.722;12.012;2023-01-29T02:00:25;101134.94;;;2.93;100.00
19600;BME280;9947;57.722;12.012;2023-01-29T02:03:01;101121.72;;;2.90;100.00
19600;BME280;9947;57.722;12.012;2023-01-29T02:05:54;101110.03;;;2.92;100.00
19600;BME280;9947;57.722;12.012;2023-01-29T02:08:53;101089.81;;;2.85;100.00
19600;BME280;9947;57.722;12.012;2023-01-29T02:11:45;101102.09;;;2.91;100.00
19600;BME280;9947;57.722;12.012;2023-01-29T02:14:12;101099.41;;;2.91;100.00
19600;BME280;9947;57.722;12.012;2023-01-29T02:16:46;101098.53;;;2.90;100.00
19600;BME280;9947;57.722;12.012;2023-01-29T02:19:16;101091.34;;;2.92;100.00
19600;BME280;9947;57.722;12.012;2023-01-29T02:22:10;101101.84;;;2.97;100.00
19600;BME280;9947;57.722;12.012;2023-01-29T02:25:06;101092.38;;;3.10;100.00
19600;BME280;9947;57.722;12.012;2023-01-29T02:28:09;101093.25;;;3.10;100.00
19600;BME280;9947;57.722;12.012;2023-01-29T02:30:51;101100.97;;;3.18;100.00
19600;BME280;9947;57.722;12.012;2023-01-29T02:33:34;101102.72;;;3.19;100.00
19600;BME280;9947;57.722;12.012;2023-01-29T02:36:18;101108.06;;;3.19;100.00
19600;BME280;9947;57.722;12.012;2023-01-29T02:38:58;101110.72;;;3.19;100.00
19600;BME280;9947;57.722;12.012;2023-01-29T02:41:37;101098.72;;;3.29;100.00
19600;BME280;9947;57.722;12.012;2023-01-29T02:44:19;101088.22;;;3.25;100.00
19600;BME280;9947;57.722;12.012;2023-01-29T02:46:56;101069.34;;;3.29;100.00
19600;BME280;9947;57.722;12.012;2023-01-29T02:49:35;101065.47;;;3.36;100.00
19600;BME280;9947;57.722;12.012;2023-01-29T02:52:08;101067.41;;;3.33;100.00
19600;BME280;9947;57.722;12.012;2023-01-29T02:54:55;101067.19;;;3.39;100.00
19600;BME280;9947;57.722;12.012;2023-01-29T02:57:31;101073.78;;;3.51;100.00
19600;BME280;9947;57.722;12.012;2023-01-29T03:00:10;101059.75;;;3.46;100.00
19600;BME280;9947;57.722;12.012;2023-01-29T03:02:48;101055.34;;;3.45;100.00
19600;BME280;9947;57.722;12.012;2023-01-29T03:05:29;101040.06;;;3.48;100.00
19600;BME280;9947;57.722;12.012;2023-01-29T03:08:06;101047.59;;;3.59;100.00
19600;BME280;9947;57.722;12.012;2023-01-29T03:10:46;101049.47;;;3.57;100.00
19600;BME280;9947;57.722;12.012;2023-01-29T03:13:28;101053.88;;;3.58;100.00
19600;BME280;9947;57.722;12.012;2023-01-29T03:16:09;101042.44;;;3.54;100.00
19600;BME280;9947;57.722;12.012;2023-01-29T03:18:49;101053.06;;;3.56;100.00
19600;BME280;9947;57.722;12.012;2023-01-29T03:21:28;101047.19;;;3.48;100.00
19600;BME280;9947;57.722;12.012;2023-01-29T03:24:16;101041.91;;;3.46;100.00
19600;BME280;9947;57.722;12.012;2023-01-29T03:27:11;101040.13;;;3.47;100.00
19600;BME280;9947;57.722;12.012;2023-01-29T03:29:58;101033.34;;;3.38;100.00
19600;BME280;9947;57.722;12.012;2023-01-29T03:32:52;101045.03;;;3.35;100.00
19600;BME280;9947;57.722;12.012;2023-01-29T03:35:30;101029.75;;;3.39;100.00
19600;BME280;9947;57.722;12.012;2023-01-29T03:38:07;101033.47;;;3.35;100.00
19600;BME280;9947;57.722;12.012;2023-01-29T03:40:39;101021.03;;;3.34;100.00
19600;BME280;9947;57.722;12.012;2023-01-29T03:43:19;100992.44;;;3.36;100.00
19600;BME280;9947;57.722;12.012;2023-01-29T03:46:00;101018.06;;;3.42;100.00
19600;BME280;9947;57.722;12.012;2023-01-29T03:48:34;101013.53;;;3.44;100.00
19600;BME280;9947;57.722;12.012;2023-01-29T03:51:21;101009.56;;;3.52;100.00
19600;BME280;9947;57.722;12.012;2023-01-29T03:53:53;101007.72;;;3.54;100.00
19600;BME280;9947;57.722;12.012;2023-01-29T03:56:37;101003.97;;;3.58;100.00
19600;BME280;9947;57.722;12.012;2023-01-29T03:59:16;101009.31;;;3.58;100.00
19600;BME280;9947;57.722;12.012;2023-01-29T04:01:53;100997.59;;;3.61;100.00
19600;BME280;9947;57.722;12.012;2023-01-29T04:04:30;101004.59;;;3.65;100.00
19600;BME280;9947;57.722;12.012;2023-01-29T04:07:03;101005.19;;;3.71;100.00
19600;BME280;9947;57.722;12.012;2023-01-29T04:09:41;100993.53;;;3.72;100.00
19600;BME280;9947;57.722;12.012;2023-01-29T04:12:20;100990.00;;;3.72;100.00
19600;BME280;9947;57.722;12.012;2023-01-29T04:14:58;100978.44;;;3.71;100.00
19600;BME280;9947;57.722;12.012;2023-01-29T04:17:37;100982.78;;;3.74;100.00
19600;BME280;9947;57.722;12.012;2023-01-29T04:20:13;100975.56;;;3.76;100.00
19600;BME280;9947;57.722;12.012;2023-01-29T04:22:49;100972.88;;;3.76;100.00
19600;BME280;9947;57.722;12.012;2023-01-29T04:25:25;100974.03;;;3.70;100.00
19600;BME280;9947;57.722;12.012;2023-01-29T04:27:59;100969.63;;;3.69;100.00
19600;BME280;9947;57.722;12.012;2023-01-29T04:30:43;100983.22;;;3.63;100.00
19600;BME280;9947;57.722;12.012;2023-01-29T04:33:21;100986.19;;;3.57;100.00
19600;BME280;9947;57.722;12.012;2023-01-29T04:36:18;100968.75;;;3.49;100.00
19600;BME280;9947;57.722;12.012;2023-01-29T04:39:01;100968.91;;;3.46;100.00
19600;BME280;9947;57.722;12.012;2023-01-29T04:41:33;100962.19;;;3.35;100.00
19600;BME280;9947;57.722;12.012;2023-01-29T04:44:14;100955.91;;;3.36;100.00
19600;BME280;9947;57.722;12.012;2023-01-29T04:47:04;100939.94;;;3.35;100.00
19600;BME280;9947;57.722;12.012;2023-01-29T04:49:41;100945.22;;;3.36;100.00
19600;BME280;9947;57.722;12.012;2023-01-29T04:52:27;100935.59;;;3.53;100.00
19600;BME280;9947;57.722;12.012;2023-01-29T04:55:02;100932.06;;;3.52;100.00
19600;BME280;9947;57.722;12.012;2023-01-29T04:57:42;100921.16;;;3.57;100.00
19600;BME280;9947;57.722;12.012;2023-01-29T05:00:21;100920.22;;;3.58;100.00
19600;BME280;9947;57.722;12.012;2023-01-29T05:02:58;100911.19;;;3.60;100.00
19600;BME280;9947;57.722;12.012;2023-01-29T05:05:34;100906.47;;;3.67;100.00
19600;BME280;9947;57.722;12.012;2023-01-29T05:08:11;100911.66;;;3.70;100.00
19600;BME280;9947;57.722;12.012;2023-01-29T05:10:39;100904.38;;;3.74;100.00
19600;BME280;9947;57.722;12.012;2023-01-29T05:13:14;100889.13;;;3.76;100.00
19600;BME280;9947;57.722;12.012;2023-01-29T05:15:59;100881.91;;;3.78;100.00
19600;BME280;9947;57.722;12.012;2023-01-29T05:18:28;100874.53;;;3.83;100.00
19600;BME280;9947;57.722;12.012;2023-01-29T05:21:04;100875.31;;;3.85;100.00
19600;BME280;9947;57.722;12.012;2023-01-29T05:23:40;100871.63;;;3.87;100.00
19600;BME280;9947;57.722;12.012;2023-01-29T05:26:22;100864.28;;;3.92;100.00
19600;BME280;9947;57.722;12.012;2023-01-29T05:29:07;100871.22;;;3.96;100.00
19600;BME280;9947;57.722;12.012;2023-01-29T05:31:42;100871.72;;;4.05;100.00
19600;BME280;9947;57.722;12.012;2023-01-29T05:34:09;100873.50;;;4.04;100.00
19600;BME280;9947;57.722;12.012;2023-01-29T05:36:43;100878.56;;;4.10;100.00
19600;BME280;9947;57.722;12.012;2023-01-29T05:39:11;100876.13;;;4.06;100.00
19600;BME280;9947;57.722;12.012;2023-01-29T05:41:45;100880.03;;;3.98;100.00
19600;BME280;9947;57.722;12.012;2023-01-29T05:44:18;100885.72;;;4.10;100.00
19600;BME280;9947;57.722;12.012;2023-01-29T05:46:45;100872.91;;;4.16;100.00
19600;BME280;9947;57.722;12.012;2023-01-29T05:49:19;100871.94;;;4.19;100.00
19600;BME280;9947;57.722;12.012;2023-01-29T05:51:46;100861.50;;;4.13;100.00
19600;BME280;9947;57.722;12.012;2023-01-29T05:54:21;100855.28;;;4.12;100.00
19600;BME280;9947;57.722;12.012;2023-01-29T05:56:48;100861.66;;;4.10;100.00
19600;BME280;9947;57.722;12.012;2023-01-29T05:59:22;100851.09;;;4.07;100.00
19600;BME280;9947;57.722;12.012;2023-01-29T06:01:55;100841.25;;;4.07;100.00
19600;BME280;9947;57.722;12.012;2023-01-29T06:04:29;100834.19;;;4.06;100.00
19600;BME280;9947;57.722;12.012;2023-01-29T06:06:55;100842.50;;;4.19;100.00
19600;BME280;9947;57.722;12.012;2023-01-29T06:09:31;100839.75;;;4.20;100.00
19600;BME280;9947;57.722;12.012;2023-01-29T06:12:11;100828.44;;;4.14;100.00
19600;BME280;9947;57.722;12.012;2023-01-29T06:14:44;100827.59;;;4.13;100.00
19600;BME280;9947;57.722;12.012;2023-01-29T06:17:11;100832.06;;;4.13;100.00
19600;BME280;9947;57.722;12.012;2023-01-29T06:19:44;100826.53;;;4.17;100.00
19600;BME280;9947;57.722;12.012;2023-01-29T06:22:11;100832.78;;;4.16;100.00
19600;BME280;9947;57.722;12.012;2023-01-29T06:24:45;100824.03;;;4.13;100.00
19600;BME280;9947;57.722;12.012;2023-01-29T06:27:19;100838.09;;;4.18;100.00
19600;BME280;9947;57.722;12.012;2023-01-29T06:29:52;100835.53;;;4.15;100.00
19600;BME280;9947;57.722;12.012;2023-01-29T06:32:25;100841.56;;;4.20;100.00
19600;BME280;9947;57.722;12.012;2023-01-29T06:34:55;100833.38;;;4.23;100.00
19600;BME280;9947;57.722;12.012;2023-01-29T06:37:36;100846.69;;;4.24;100.00
19600;BME280;9947;57.722;12.012;2023-01-29T06:40:05;100859.03;;;4.27;100.00
19600;BME280;9947;57.722;12.012;2023-01-29T06:42:39;100852.59;;;4.31;100.00
19600;BME280;9947;57.722;12.012;2023-01-29T06:45:12;100840.22;;;4.28;100.00
19600;BME280;9947;57.722;12.012;2023-01-29T06:47:39;100845.50;;;4.30;100.00
19600;BME280;9947;57.722;12.012;2023-01-29T06:50:13;100827.72;;;4.29;100.00
19600;BME280;9947;57.722;12.012;2023-01-29T06:52:39;100815.34;;;4.26;100.00
19600;BME280;9947;57.722;12.012;2023-01-29T06:55:08;100824.72;;;4.18;100.00
19600;BME280;9947;57.722;12.012;2023-01-29T06:57:42;100806.69;;;4.21;100.00
19600;BME280;9947;57.722;12.012;2023-01-29T07:00:15;100797.72;;;4.22;100.00
19600;BME280;9947;57.722;12.012;2023-01-29T07:02:49;100805.91;;;4.19;100.00
19600;BME280;9947;57.722;12.012;2023-01-29T07:05:23;100792.38;;;4.22;100.00
19600;BME280;9947;57.722;12.012;2023-01-29T07:07:50;100785.28;;;4.21;100.00
19600;BME280;9947;57.722;12.012;2023-01-29T07:10:24;100783.72;;;4.17;100.00
19600;BME280;9947;57.722;12.012;2023-01-29T07:12:51;100789.00;;;4.19;100.00
19600;BME280;9947;57.722;12.012;2023-01-29T07:15:25;100778.13;;;4.22;100.00
19600;BME280;9947;57.722;12.012;2023-01-29T07:17:56;100788.75;;;4.23;100.00
19600;BME280;9947;57.722;12.012;2023-01-29T07:20:37;100797.66;;;4.24;100.00
19600;BME280;9947;57.722;12.012;2023-01-29T07:23:11;100775.22;;;4.26;100.00
19600;BME280;9947;57.722;12.012;2023-01-29T07:25:47;100770.81;;;4.25;100.00
19600;BME280;9947;57.722;12.012;2023-01-29T07:28:14;100768.75;;;4.30;100.00
19600;BME280;9947;57.722;12.012;2023-01-29T07:30:48;100765.94;;;4.33;100.00
19600;BME280;9947;57.722;12.012;2023-01-29T07:33:23;100758.94;;;4.31;100.00
19600;BME280;9947;57.722;12.012;2023-01-29T07:35:56;100755.94;;;4.20;100.00
19600;BME280;9947;57.722;12.012;2023-01-29T07:38:23;100741.38;;;4.25;100.00
19600;BME280;9947;57.722;12.012;2023-01-29T07:40:57;100744.91;;;4.26;100.00
19600;BME280;9947;57.722;12.012;2023-01-29T07:43:31;100728.00;;;4.25;100.00
19600;BME280;9947;57.722;12.012;2023-01-29T07:46:04;100741.06;;;4.31;100.00
19600;BME280;9947;57.722;12.012;2023-01-29T07:48:31;100735.88;;;4.28;100.00
19600;BME280;9947;57.722;12.012;2023-01-29T07:51:05;100742.41;;;4.23;100.00
19600;BME280;9947;57.722;12.012;2023-01-29T07:53:39;100734.53;;;4.20;100.00
19600;BME280;9947;57.722;12.012;2023-01-29T07:56:13;100736.19;;;4.22;100.00
19600;BME280;9947;57.722;12.012;2023-01-29T07:58:40;100726.09;;;4.27;100.00
19600;BME280;9947;57.722;12.012;2023-01-29T08:01:14;100719.03;;;4.26;100.00
19600;BME280;9947;57.722;12.012;2023-01-29T08:03:47;100712.31;;;4.35;100.00
19600;BME280;9947;57.722;12.012;2023-01-29T08:06:21;100720.91;;;4.42;100.00
19600;BME280;9947;57.722;12.012;2023-01-29T08:08:54;100717.34;;;4.41;100.00
19600;BME280;9947;57.722;12.012;2023-01-29T08:11:28;100709.81;;;4.49;100.00
19600;BME280;9947;57.722;12.012;2023-01-29T08:13:55;100715.94;;;4.51;100.00
19600;BME280;9947;57.722;12.012;2023-01-29T08:16:29;100714.63;;;4.43;100.00
19600;BME280;9947;57.722;12.012;2023-01-29T08:19:02;100702.41;;;4.54;100.00
19600;BME280;9947;57.722;12.012;2023-01-29T08:21:35;100693.75;;;4.49;100.00
19600;BME280;9947;57.722;12.012;2023-01-29T08:24:08;100708.31;;;4.44;100.00
19600;BME280;9947;57.722;12.012;2023-01-29T08:26:36;100706.44;;;4.46;100.00
19600;BME280;9947;57.722;12.012;2023-01-29T08:29:10;100700.28;;;4.44;100.00
19600;BME280;9947;57.722;12.012;2023-01-29T08:31:43;100698.56;;;4.43;100.00
19600;BME280;9947;57.722;12.012;2023-01-29T08:34:17;100691.44;;;4.42;100.00
19600;BME280;9947;57.722;12.012;2023-01-29T08:36:51;100685.25;;;4.41;100.00
19600;BME280;9947;57.722;12.012;2023-01-29T08:39:24;100694.69;;;4.48;100.00
19600;BME280;9947;57.722;12.012;2023-01-29T08:41:54;100684.06;;;4.47;100.00
19600;BME280;9947;57.722;12.012;2023-01-29T08:44:28;100679.88;;;4.41;100.00
19600;BME280;9947;57.722;12.012;2023-01-29T08:47:02;100698.06;;;4.52;100.00
19600;BME280;9947;57.722;12.012;2023-01-29T08:49:36;100702.81;;;4.47;100.00
19600;BME280;9947;57.722;12.012;2023-01-29T08:52:09;100695.94;;;4.41;100.00
19600;BME280;9947;57.722;12.012;2023-01-29T08:54:36;100696.81;;;4.42;100.00
19600;BME280;9947;57.722;12.012;2023-01-29T08:57:10;100692.56;;;4.38;100.00
19600;BME280;9947;57.722;12.012;2023-01-29T08:59:37;100690.66;;;4.40;100.00
19600;BME280;9947;57.722;12.012;2023-01-29T09:02:11;100696.44;;;4.32;100.00
19600;BME280;9947;57.722;12.012;2023-01-29T09:04:40;100702.41;;;4.37;100.00
19600;BME280;9947;57.722;12.012;2023-01-29T09:07:14;100702.47;;;4.36;100.00
19600;BME280;9947;57.722;12.012;2023-01-29T09:09:48;100709.66;;;4.35;100.00
19600;BME280;9947;57.722;12.012;2023-01-29T09:12:16;100706.81;;;4.38;100.00
19600;BME280;9947;57.722;12.012;2023-01-29T09:14:50;100704.91;;;4.40;100.00
19600;BME280;9947;57.722;12.012;2023-01-29T09:17:30;100703.75;;;4.46;100.00
19600;BME280;9947;57.722;12.012;2023-01-29T09:19:57;100709.66;;;4.52;100.00
19600;BME280;9947;57.722;12.012;2023-01-29T09:22:30;100719.16;;;4.58;100.00
19600;BME280;9947;57.722;12.012;2023-01-29T09:25:05;100731.00;;;4.54;100.00
19600;BME280;9947;57.722;12.012;2023-01-29T09:27:39;100720.53;;;4.49;100.00
19600;BME280;9947;57.722;12.012;2023-01-29T09:30:07;100721.34;;;4.67;100.00
19600;BME280;9947;57.722;12.012;2023-01-29T09:32:40;100726.25;;;4.59;100.00
19600;BME280;9947;57.722;12.012;2023-01-29T09:35:07;100725.56;;;4.55;100.00
19600;BME280;9947;57.722;12.012;2023-01-29T09:37:41;100727.91;;;4.61;100.00
19600;BME280;9947;57.722;12.012;2023-01-29T09:40:23;100726.94;;;4.62;100.00
19600;BME280;9947;57.722;12.012;2023-01-29T09:42:55;100726.16;;;4.60;100.00
19600;BME280;9947;57.722;12.012;2023-01-29T09:45:30;100729.09;;;4.73;100.00
19600;BME280;9947;57.722;12.012;2023-01-29T09:47:58;100721.06;;;4.73;100.00
19600;BME280;9947;57.722;12.012;2023-01-29T09:50:36;100722.00;;;4.72;100.00
19600;BME280;9947;57.722;12.012;2023-01-29T09:53:16;100715.38;;;4.79;100.00
19600;BME280;9947;57.722;12.012;2023-01-29T09:55:54;100707.09;;;4.67;100.00
19600;BME280;9947;57.722;12.012;2023-01-29T09:58:41;100692.22;;;4.78;100.00
19600;BME280;9947;57.722;12.012;2023-01-29T10:01:21;100689.63;;;4.77;100.00
19600;BME280;9947;57.722;12.012;2023-01-29T10:04:23;100689.63;;;4.77;100.00
19600;BME280;9947;57.722;12.012;2023-01-29T10:07:28;100684.44;;;4.56;100.00
19600;BME280;9947;57.722;12.012;2023-01-29T10:10:27;100688.22;;;4.52;100.00
19600;BME280;9947;57.722;12.012;2023-01-29T10:13:09;100674.22;;;4.47;100.00
19600;BME280;9947;57.722;12.012;2023-01-29T10:16:06;100671.81;;;4.43;100.00
19600;BME280;9947;57.722;12.012;2023-01-29T10:18:58;100666.97;;;4.49;100.00
19600;BME280;9947;57.722;12.012;2023-01-29T10:24:58;100639.03;;;4.55;100.00
19600;BME280;9947;57.722;12.012;2023-01-29T10:27:31;100634.53;;;4.55;100.00
19600;BME280;9947;57.722;12.012;2023-01-29T10:30:07;100621.84;;;4.59;100.00
19600;BME280;9947;57.722;12.012;2023-01-29T10:32:43;100617.78;;;4.52;100.00
19600;BME280;9947;57.722;12.012;2023-01-29T10:35:22;100618.56;;;4.54;100.00
19600;BME280;9947;57.722;12.012;2023-01-29T10:38:12;100606.38;;;4.48;100.00
19600;BME280;9947;57.722;12.012;2023-01-29T10:40:54;100609.03;;;4.48;100.00
19600;BME280;9947;57.722;12.012;2023-01-29T10:43:35;100601.63;;;4.53;100.00
19600;BME280;9947;57.722;12.012;2023-01-29T10:46:14;100593.69;;;4.52;100.00
19600;BME280;9947;57.722;12.012;2023-01-29T10:49:17;100590.75;;;4.56;100.00
19600;BME280;9947;57.722;12.012;2023-01-29T10:52:10;100581.50;;;4.62;100.00
19600;BME280;9947;57.722;12.012;2023-01-29T10:54:59;100574.63;;;4.41;100.00
19600;BME280;9947;57.722;12.012;2023-01-29T10:59:07;100572.19;;;4.53;100.00
19600;BME280;9947;57.722;12.012;2023-01-29T11:00:49;100569.50;;;4.53;100.00
19600;BME280;9947;57.722;12.012;2023-01-29T11:03:43;100549.03;;;4.52;100.00
19600;BME280;9947;57.722;12.012;2023-01-29T11:06:32;100545.94;;;4.60;100.00
19600;BME280;9947;57.722;12.012;2023-01-29T11:09:05;100546.63;;;4.63;100.00
19600;BME280;9947;57.722;12.012;2023-01-29T11:11:55;100537.63;;;4.64;100.00
19600;BME280;9947;57.722;12.012;2023-01-29T11:14:32;100525.03;;;4.67;100.00
19600;BME280;9947;57.722;12.012;2023-01-29T11:17:14;100517.28;;;4.78;100.00
19600;BME280;9947;57.722;12.012;2023-01-29T11:19:50;100514.94;;;4.72;100.00
19600;BME280;9947;57.722;12.012;2023-01-29T11:22:27;100503.53;;;4.84;100.00
19600;BME280;9947;57.722;12.012;2023-01-29T11:25:15;100502.34;;;4.74;100.00
19600;BME280;9947;57.722;12.012;2023-01-29T11:27:51;100499.28;;;4.64;100.00
19600;BME280;9947;57.722;12.012;2023-01-29T11:30:34;100480.47;;;4.65;100.00
19600;BME280;9947;57.722;12.012;2023-01-29T11:33:10;100491.94;;;4.68;100.00
19600;BME280;9947;57.722;12.012;2023-01-29T11:35:55;100493.63;;;4.70;100.00
19600;BME280;9947;57.722;12.012;2023-01-29T11:38:30;100486.88;;;4.79;100.00
19600;BME280;9947;57.722;12.012;2023-01-29T11:41:18;100482.19;;;4.67;100.00
19600;BME280;9947;57.722;12.012;2023-01-29T11:43:46;100482.91;;;4.70;100.00
19600;BME280;9947;57.722;12.012;2023-01-29T11:46:27;100479.78;;;4.78;100.00
19600;BME280;9947;57.722;12.012;2023-01-29T11:48:54;100481.19;;;4.69;100.00
19600;BME280;9947;57.722;12.012;2023-01-29T11:51:35;100479.19;;;4.73;100.00
19600;BME280;9947;57.722;12.012;2023-01-29T11:54:27;100472.00;;;4.73;100.00
19600;BME280;9947;57.722;12.012;2023-01-29T11:57:28;100469.66;;;4.67;100.00
19600;BME280;9947;57.722;12.012;2023-01-29T12:00:18;100466.38;;;4.62;100.00
19600;BME280;9947;57.722;12.012;2023-01-29T12:03:09;100457.84;;;4.55;100.00
19600;BME280;9947;57.722;12.012;2023-01-29T12:05:40;100459.47;;;4.58;100.00
19600;BME280;9947;57.722;12.012;2023-01-29T12:08:22;100451.09;;;4.64;100.00
19600;BME280;9947;57.722;12.012;2023-01-29T12:11:11;100439.00;;;4.41;100.00
19600;BME280;9947;57.722;12.012;2023-01-29T12:13:43;100433.66;;;4.41;100.00
19600;BME280;9947;57.722;12.012;2023-01-29T12:16:46;100436.50;;;4.38;100.00
19600;BME280;9947;57.722;12.012;2023-01-29T12:19:33;100439.09;;;4.40;100.00
19600;BME280;9947;57.722;12.012;2023-01-29T12:22:16;100426.75;;;4.37;100.00
19600;BME280;9947;57.722;12.012;2023-01-29T12:24:51;100434.59;;;4.40;100.00
19600;BME280;9947;57.722;12.012;2023-01-29T12:27:30;100422.25;;;4.38;100.00
19600;BME280;9947;57.722;12.012;2023-01-29T12:30:16;100417.25;;;4.31;100.00
19600;BME280;9947;57.722;12.012;2023-01-29T12:32:56;100407.25;;;4.35;100.00
19600;BME280;9947;57.722;12.012;2023-01-29T12:35:34;100392.75;;;4.23;100.00
19600;BME280;9947;57.722;12.012;2023-01-29T12:38:09;100396.13;;;4.27;100.00
19600;BME280;9947;57.722;12.012;2023-01-29T12:40:51;100373.75;;;4.28;100.00
19600;BME280;9947;57.722;12.012;2023-01-29T12:43:31;100385.41;;;4.27;100.00
19600;BME280;9947;57.722;12.012;2023-01-29T12:46:01;100373.84;;;4.26;100.00
19600;BME280;9947;57.722;12.012;2023-01-29T12:48:41;100371.00;;;4.29;100.00
19600;BME280;9947;57.722;12.012;2023-01-29T12:51:18;100358.91;;;4.38;100.00
19600;BME280;9947;57.722;12.012;2023-01-29T12:53:56;100366.16;;;4.36;100.00
19600;BME280;9947;57.722;12.012;2023-01-29T12:56:33;100350.69;;;4.41;100.00
19600;BME280;9947;57.722;12.012;2023-01-29T12:59:17;100336.34;;;4.42;100.00
19600;BME280;9947;57.722;12.012;2023-01-29T13:01:49;100333.00;;;4.39;100.00
19600;BME280;9947;57.722;12.012;2023-01-29T13:04:35;100335.84;;;4.36;100.00
19600;BME280;9947;57.722;12.012;2023-01-29T13:07:14;100327.41;;;4.43;100.00
19600;BME280;9947;57.722;12.012;2023-01-29T13:09:52;100345.41;;;4.40;100.00
19600;BME280;9947;57.722;12.012;2023-01-29T13:12:21;100333.53;;;4.29;100.00
19600;BME280;9947;57.722;12.012;2023-01-29T13:14:58;100333.34;;;4.32;100.00
19600;BME280;9947;57.722;12.012;2023-01-29T13:17:36;100334.41;;;4.30;100.00
19600;BME280;9947;57.722;12.012;2023-01-29T13:20:17;100319.56;;;4.24;100.00
19600;BME280;9947;57.722;12.012;2023-01-29T13:22:47;100322.81;;;4.29;100.00
19600;BME280;9947;57.722;12.012;2023-01-29T13:25:22;100316.28;;;4.19;100.00
19600;BME280;9947;57.722;12.012;2023-01-29T13:27:49;100316.44;;;4.16;100.00
19600;BME280;9947;57.722;12.012;2023-01-29T13:30:29;100315.44;;;4.19;100.00
19600;BME280;9947;57.722;12.012;2023-01-29T13:32:59;100306.28;;;4.23;100.00
19600;BME280;9947;57.722;12.012;2023-01-29T13:35:37;100302.75;;;4.22;100.00
19600;BME280;9947;57.722;12.012;2023-01-29T13:38:22;100291.94;;;4.24;100.00
19600;BME280;9947;57.722;12.012;2023-01-29T13:41:00;100293.75;;;4.23;100.00
19600;BME280;9947;57.722;12.012;2023-01-29T13:43:36;100296.25;;;4.11;100.00
19600;BME280;9947;57.722;12.012;2023-01-29T13:46:09;100293.94;;;4.20;100.00
19600;BME280;9947;57.722;12.012;2023-01-29T13:48:47;100286.31;;;4.28;100.00